Time;durP1;ratioP1;P1;durP2;ratioP2;P2;SDS_P1;SDS_P2;PMS_P1;PMS_P2;Temp;Humidity;BMP_temperature;BMP_pressure;BME280_temperature;BME280_humidity;BME280_pressure;Samples;Min_cycle;Max_cycle;Signal;HPM_P1;HPM_P2
2023/04/19 00:04:28;;;;;;;10.70;4.60;;;;;;;8.22;74.94;101362.48;218576;1288;138665;-90
2023/04/19 00:09:29;;;;;;;9.90;4.00;;;;;;;8.19;75.84;101351.45;218133;1288;139359;-89
2023/04/19 00:14:29;;;;;;;10.70;4.20;;;;;;;8.15;76.49;101350.08;218600;1288;138699;-90
2023/04/19 00:19:30;;;;;;;13.10;4.30;;;;;;;8.08;77.03;101347.08;218068;1288;139502;-94
2023/04/19 00:24:30;;;;;;;11.30;3.80;;;;;;;7.98;76.47;101336.60;218573;1288;103139;-89
2023/04/19 00:29:30;;;;;;;7.10;3.50;;;;;;;7.85;76.03;101334.41;217974;1288;140425;-91
2023/04/19 00:34:31;;;;;;;8.50;3.90;;;;;;;7.72;75.16;101335.08;218584;1288;138318;-91
2023/04/19 00:39:31;;;;;;;9.20;3.50;;;;;;;7.61;75.55;101333.42;217827;1288;138839;-89
2023/04/19 00:44:32;;;;;;;10.60;3.50;;;;;;;7.49;75.56;101332.43;218428;1289;138476;-93
2023/04/19 00:49:32;;;;;;;7.40;3.30;;;;;;;7.35;74.93;101329.23;218079;1288;139556;-90
2023/04/19 00:54:33;;;;;;;9.50;3.70;;;;;;;7.17;75.22;101321.98;218688;1288;96003;-91
2023/04/19 00:59:34;;;;;;;8.50;3.20;;;;;;;7.04;75.11;101316.13;218116;1288;139907;-89
2023/04/19 01:04:35;;;;;;;7.60;3.30;;;;;;;6.91;75.80;101309.36;218583;1288;138968;-89
2023/04/19 01:09:39;;;;;;;8.40;3.10;;;;;;;6.81;76.59;101302.81;217988;1291;138728;-89
2023/04/19 01:14:40;;;;;;;9.30;3.80;;;;;;;6.68;76.82;101297.41;218550;1288;138660;-90
2023/04/19 01:19:41;;;;;;;7.30;3.10;;;;;;;6.56;77.16;101293.55;217974;1289;138851;-89
2023/04/19 01:24:41;;;;;;;8.90;3.60;;;;;;;6.38;77.25;101292.06;218687;1289;96195;-89
2023/04/19 01:29:42;;;;;;;12.50;3.30;;;;;;;6.25;77.76;101287.27;218037;1289;138640;-89
2023/04/19 01:34:43;;;;;;;8.10;3.00;;;;;;;6.14;77.89;101288.51;218382;1289;138586;-89
2023/04/19 01:39:43;;;;;;;10.00;3.70;;;;;;;6.01;78.26;101288.41;217995;1288;138986;-90
2023/04/19 01:44:44;;;;;;;8.40;3.30;;;;;;;5.88;78.58;101281.98;218329;1289;138720;-89
2023/04/19 01:49:44;;;;;;;11.60;3.50;;;;;;;5.74;78.99;101273.79;218059;1288;142067;-89
2023/04/19 01:54:44;;;;;;;7.00;2.70;;;;;;;5.58;79.01;101277.71;218747;1288;96632;-90
2023/04/19 01:59:45;;;;;;;9.40;3.50;;;;;;;5.45;79.53;101272.36;218003;1287;138437;-90
2023/04/19 02:04:45;;;;;;;8.80;3.30;;;;;;;5.31;79.77;101267.28;218483;1290;139514;-89
2023/04/19 02:09:46;;;;;;;8.30;3.30;;;;;;;5.20;80.09;101261.05;217920;1291;138747;-90
2023/04/19 02:14:46;;;;;;;8.00;3.20;;;;;;;5.08;80.37;101258.10;218602;1291;138587;-90
2023/04/19 02:19:46;;;;;;;7.20;3.20;;;;;;;4.96;81.00;101259.55;218001;1289;138938;-89
2023/04/19 02:24:49;;;;;;;9.40;4.50;;;;;;;4.83;81.01;101258.93;218673;1288;96051;-89
2023/04/19 02:29:50;;;;;;;9.90;4.00;;;;;;;4.71;81.74;101253.84;218017;1289;139067;-89
2023/04/19 02:34:50;;;;;;;7.80;2.80;;;;;;;4.57;81.74;101250.60;218473;1289;138359;-89
2023/04/19 02:39:51;;;;;;;8.00;3.20;;;;;;;4.46;82.53;101247.14;217849;1288;139178;-87
2023/04/19 02:44:51;;;;;;;9.80;2.90;;;;;;;4.36;82.95;101242.91;218579;1288;139001;-92
2023/04/19 02:49:52;;;;;;;8.10;3.00;;;;;;;4.23;83.28;101240.61;218098;1291;140420;-89
2023/04/19 02:54:52;;;;;;;9.30;3.40;;;;;;;4.11;83.85;101230.54;218669;1288;96029;-88
2023/04/19 02:59:52;;;;;;;12.10;3.80;;;;;;;4.02;84.46;101221.16;218053;1288;138430;-88
2023/04/19 03:04:54;;;;;;;8.10;3.50;;;;;;;3.92;84.94;101212.99;218397;1288;139845;-88
2023/04/19 03:09:54;;;;;;;11.50;3.70;;;;;;;3.83;85.45;101201.81;217876;1288;139691;-90
2023/04/19 03:14:55;;;;;;;10.40;3.90;;;;;;;3.76;86.21;101195.91;218516;1288;138858;-90
2023/04/19 03:19:55;;;;;;;8.70;2.70;;;;;;;3.71;86.48;101191.33;217816;1288;139222;-89
2023/04/19 03:24:56;;;;;;;9.40;3.70;;;;;;;3.65;86.87;101188.14;218578;1289;138451;-89
2023/04/19 03:29:56;;;;;;;9.80;3.00;;;;;;;3.58;87.23;101191.33;218107;1289;139004;-89
2023/04/19 03:34:57;;;;;;;9.20;3.20;;;;;;;3.53;87.72;101188.39;218495;1289;139173;-90
2023/04/19 03:39:57;;;;;;;10.20;3.50;;;;;;;3.49;87.86;101188.41;218177;1288;138762;-90
2023/04/19 03:44:58;;;;;;;10.40;3.40;;;;;;;3.42;88.18;101186.12;218397;1289;138950;-89
2023/04/19 03:49:58;;;;;;;10.00;4.00;;;;;;;3.39;88.89;101180.23;218027;1289;138991;-88
2023/04/19 03:54:58;;;;;;;10.30;3.30;;;;;;;3.35;89.27;101169.44;218602;1289;138615;-88
2023/04/19 03:59:59;;;;;;;10.80;4.10;;;;;;;3.35;89.55;101164.54;218178;1289;139667;-89
2023/04/19 04:04:59;;;;;;;9.50;4.00;;;;;;;3.36;89.72;101162.52;218526;1289;138628;-89
2023/04/19 04:10:00;;;;;;;10.70;3.90;;;;;;;3.35;90.11;101156.73;218053;1291;139316;-89
2023/04/19 04:15:00;;;;;;;10.50;3.60;;;;;;;3.37;90.41;101155.52;218213;1289;432929;-89
2023/04/19 04:20:01;;;;;;;10.10;4.00;;;;;;;3.41;90.96;101153.55;217922;1288;139195;-88
2023/04/19 04:25:03;;;;;;;10.20;4.10;;;;;;;3.48;91.20;101154.96;218439;1292;138867;-90
2023/04/19 04:30:07;;;;;;;10.50;3.80;;;;;;;3.53;91.43;101151.38;218175;1289;138686;-88
2023/04/19 04:35:09;;;;;;;11.10;4.00;;;;;;;3.60;91.68;101151.48;218526;1288;139075;-88
2023/04/19 04:40:10;;;;;;;8.90;4.00;;;;;;;3.69;92.07;101143.45;217811;1289;140397;-89
2023/04/19 04:45:11;;;;;;;13.30;4.60;;;;;;;3.77;92.13;101139.04;218577;1288;138647;-88
2023/04/19 04:50:12;;;;;;;9.40;3.90;;;;;;;3.84;92.29;101136.34;218076;1288;139241;-88
2023/04/19 04:55:12;;;;;;;10.20;3.30;;;;;;;3.91;92.57;101134.54;218476;1289;138680;-89
2023/04/19 05:00:13;;;;;;;10.20;4.10;;;;;;;4.00;92.77;101129.34;217971;1288;139131;-90
2023/04/19 05:05:14;;;;;;;12.00;5.40;;;;;;;4.09;93.21;101123.05;218331;1291;138855;-88
2023/04/19 05:10:14;;;;;;;9.90;4.10;;;;;;;4.21;93.39;101124.98;217888;1288;139403;-89
2023/04/19 05:15:15;;;;;;;10.20;4.50;;;;;;;4.33;93.63;101119.73;218597;1288;138625;-91
2023/04/19 05:20:15;;;;;;;10.50;4.70;;;;;;;4.46;93.65;101114.94;217899;1288;138734;-90
2023/04/19 05:25:16;;;;;;;9.10;4.20;;;;;;;4.59;93.78;101107.69;218598;1288;139272;-90
2023/04/19 05:30:16;;;;;;;13.50;4.80;;;;;;;4.74;94.07;101100.73;218110;1287;138764;-88
2023/04/19 05:35:17;;;;;;;14.80;4.60;;;;;;;4.87;94.34;101101.12;218538;1288;138513;-87
2023/04/19 05:40:18;;;;;;;8.70;4.30;;;;;;;5.00;94.16;101098.97;217950;1288;138734;-86
2023/04/19 05:45:20;;;;;;;10.10;4.40;;;;;;;5.17;94.06;101102.56;218542;1289;138516;-86
2023/04/19 05:50:21;;;;;;;13.40;4.50;;;;;;;5.33;94.05;101100.46;217817;1288;138975;-87
2023/04/19 05:55:21;;;;;;;10.30;4.10;;;;;;;5.51;94.00;101097.91;218378;1287;138629;-88
2023/04/19 06:00:22;;;;;;;11.90;4.20;;;;;;;5.59;93.48;101100.57;218104;1288;139671;-88
2023/04/19 06:05:22;;;;;;;10.10;4.20;;;;;;;5.66;93.54;101100.94;218577;1288;138852;-88
2023/04/19 06:10:23;;;;;;;13.00;4.10;;;;;;;5.73;93.28;101098.02;217829;1289;139530;-88
2023/04/19 06:15:24;;;;;;;10.80;3.90;;;;;;;5.77;92.93;101098.59;218529;1288;138736;-88
2023/04/19 06:20:25;;;;;;;9.80;3.50;;;;;;;5.78;93.07;101111.84;218107;1288;138729;-90
2023/04/19 06:25:25;;;;;;;12.10;4.30;;;;;;;5.81;93.10;101114.63;218460;1288;138843;-88
2023/04/19 06:30:26;;;;;;;10.30;4.40;;;;;;;5.83;93.06;101124.92;218086;1288;138895;-89
2023/04/19 06:35:26;;;;;;;11.10;3.80;;;;;;;5.79;94.16;101129.52;218583;1288;138781;-92
2023/04/19 06:40:28;;;;;;;9.30;3.90;;;;;;;5.71;95.38;101123.63;218023;1288;139363;-92
2023/04/19 06:45:28;;;;;;;10.90;4.60;;;;;;;5.73;96.15;101117.67;218345;1288;138677;-92
2023/04/19 06:50:29;;;;;;;12.00;5.40;;;;;;;5.79;96.38;101109.65;218043;1288;139529;-92
2023/04/19 06:55:30;;;;;;;14.80;5.10;;;;;;;5.82;96.49;101104.61;218381;1288;138858;-92
2023/04/19 07:00:30;;;;;;;13.30;5.40;;;;;;;5.87;96.70;101099.33;218149;1288;139599;-93
2023/04/19 07:05:31;;;;;;;12.20;4.90;;;;;;;5.88;97.42;101099.83;218573;1288;138669;-91
2023/04/19 07:10:31;;;;;;;12.50;5.40;;;;;;;6.02;99.14;101098.38;217955;1287;139220;-92
2023/04/19 07:15:31;;;;;;;13.00;5.00;;;;;;;6.24;99.91;101087.08;218438;1288;139812;-92
2023/04/19 07:20:32;;;;;;;14.70;4.60;;;;;;;6.45;100.00;101090.14;218089;1287;138886;-90
2023/04/19 07:25:33;;;;;;;12.80;4.90;;;;;;;6.57;100.00;101099.19;218483;1288;138989;-90
2023/04/19 07:30:34;;;;;;;12.90;5.50;;;;;;;6.63;99.93;101099.35;218094;1288;138646;-91
2023/04/19 07:35:38;;;;;;;13.50;4.90;;;;;;;6.76;100.00;101096.55;218557;1288;139764;-90
2023/04/19 07:40:38;;;;;;;10.50;4.50;;;;;;;6.93;99.83;101074.10;217714;1288;139334;-90
2023/04/19 07:45:39;;;;;;;9.50;4.70;;;;;;;7.07;98.91;101074.32;218350;1288;140171;-90
2023/04/19 07:50:40;;;;;;;14.30;4.90;;;;;;;7.12;98.13;101089.21;217816;1288;139118;-90
2023/04/19 07:55:40;;;;;;;12.40;5.00;;;;;;;7.12;97.90;101095.05;218535;1288;138928;-88
2023/04/19 08:00:40;;;;;;;14.50;5.30;;;;;;;7.09;97.97;101090.79;218092;1288;139503;-91
2023/04/19 08:05:41;;;;;;;13.10;4.90;;;;;;;7.05;97.77;101086.98;218614;1287;138830;-91
2023/04/19 08:10:42;;;;;;;15.50;5.50;;;;;;;6.95;97.36;101088.34;218026;1288;139235;-91
2023/04/19 08:15:42;;;;;;;13.10;5.40;;;;;;;6.90;97.69;101089.56;218487;1288;139318;-90
2023/04/19 08:20:45;;;;;;;12.60;5.20;;;;;;;6.81;97.61;101090.64;217941;1288;138934;-91
2023/04/19 08:25:46;;;;;;;13.00;5.00;;;;;;;6.74;97.70;101094.11;218401;1288;138687;-90
2023/04/19 08:30:46;;;;;;;11.10;4.10;;;;;;;6.68;97.79;101091.08;217864;1288;138816;-90
2023/04/19 08:35:46;;;;;;;15.60;5.70;;;;;;;6.58;97.94;101085.30;218501;1289;139753;-89
2023/04/19 08:40:51;;;;;;;14.60;5.70;;;;;;;6.39;97.72;101078.21;217990;1288;138886;-88
2023/04/19 08:45:53;;;;;;;11.40;4.70;;;;;;;6.18;98.05;101065.89;218498;1288;139110;-90
2023/04/19 08:50:56;;;;;;;10.20;4.40;;;;;;;6.07;98.64;101058.22;218010;1288;139875;-88
2023/04/19 08:56:00;;;;;;;13.00;5.00;;;;;;;6.05;99.01;101054.06;218532;1288;138832;-89
2023/04/19 09:01:03;;;;;;;14.50;4.90;;;;;;;5.97;99.13;101038.14;217856;1288;141487;-88
2023/04/19 09:06:03;;;;;;;11.70;6.30;;;;;;;5.91;99.54;101032.84;218635;1288;96005;-88
2023/04/19 09:11:04;;;;;;;10.00;5.30;;;;;;;5.84;99.92;101021.23;217827;1288;138583;-89
2023/04/19 09:16:06;;;;;;;13.00;6.00;;;;;;;5.79;99.96;101016.99;218600;1288;138702;-88
2023/04/19 09:21:07;;;;;;;15.50;5.90;;;;;;;5.79;99.99;101006.17;217690;1288;139236;-87
2023/04/19 09:26:07;;;;;;;18.80;6.70;;;;;;;5.80;100.00;101001.13;218486;1288;138818;-89
2023/04/19 09:31:12;;;;;;;18.40;7.10;;;;;;;5.85;100.00;100995.43;217825;1288;140037;-90
2023/04/19 09:36:29;;;;;;;15.60;6.50;;;;;;;5.88;100.00;100997.28;218504;1288;96052;-90
2023/04/19 09:41:31;;;;;;;;;;;;;;;5.86;100.00;101000.67;217844;1288;139058;-90
2023/04/19 09:46:35;;;;;;;15.70;6.30;;;;;;;5.85;100.00;101006.67;218489;1287;125620;-90
2023/04/19 09:51:40;;;;;;;15.50;6.60;;;;;;;5.91;100.00;101000.83;218198;1288;139502;-90
2023/04/19 09:56:41;;;;;;;12.20;6.00;;;;;;;5.93;100.00;100999.14;218412;1289;139361;-90
2023/04/19 10:01:52;;;;;;;13.00;6.30;;;;;;;5.96;100.00;100999.09;217832;1288;139595;-90
2023/04/19 10:06:53;;;;;;;16.40;6.70;;;;;;;5.99;100.00;100993.80;218573;1287;110228;-90
2023/04/19 10:11:56;;;;;;;16.60;7.20;;;;;;;6.01;100.00;100990.69;218046;1288;139303;-90
2023/04/19 10:16:57;;;;;;;15.00;6.00;;;;;;;6.01;100.00;100985.39;218558;1288;140178;-90
2023/04/19 10:21:57;;;;;;;13.40;6.60;;;;;;;6.01;100.00;100982.50;217962;1287;140146;-91
2023/04/19 10:27:10;;;;;;;17.20;6.90;;;;;;;5.97;100.00;100987.47;218416;1288;139016;-91
2023/04/19 10:32:12;;;;;;;12.10;6.10;;;;;;;5.89;100.00;100982.17;217932;1288;139426;-90
2023/04/19 10:37:13;;;;;;;16.60;6.40;;;;;;;5.88;100.00;100975.10;218513;1288;138972;-90
2023/04/19 10:42:13;;;;;;;17.00;7.80;;;;;;;5.95;100.00;100971.19;218298;1287;138814;-91
2023/04/19 10:47:40;;;;;;;15.10;6.90;;;;;;;5.96;100.00;100975.92;218610;1288;138755;-91
2023/04/19 10:52:40;;;;;;;;;;;;;;;5.91;100.00;100977.64;218035;1288;138897;-91
2023/04/19 10:58:00;;;;;;;16.90;7.10;;;;;;;5.80;100.00;100977.52;218559;1287;125117;-92
2023/04/19 11:03:38;;;;;;;12.40;6.10;;;;;;;5.80;100.00;100973.76;217986;1288;140080;-92
2023/04/19 11:08:43;;;;;;;14.10;7.30;;;;;;;5.87;100.00;100968.39;218505;1288;138871;-90
2023/04/19 11:13:47;;;;;;;15.60;8.30;;;;;;;5.96;100.00;100970.06;217837;1289;139135;-90
2023/04/19 11:18:48;;;;;;;12.30;7.00;;;;;;;6.08;100.00;100964.70;218371;1288;96094;-90
2023/04/19 11:24:05;;;;;;;16.10;7.60;;;;;;;6.17;100.00;100963.11;218053;1288;138581;-91
2023/04/19 11:29:06;;;;;;;14.80;7.40;;;;;;;6.30;100.00;100959.30;217995;1287;139458;-90
2023/04/19 11:34:06;;;;;;;13.10;7.20;;;;;;;6.35;100.00;100953.23;218707;1288;139091;-89
2023/04/19 11:39:06;;;;;;;13.90;6.70;;;;;;;6.38;100.00;100952.70;218060;1288;140390;-90
2023/04/19 11:44:20;;;;;;;12.50;6.50;;;;;;;6.41;100.00;100948.23;218567;1288;139040;-89
2023/04/19 11:49:32;;;;;;;18.40;6.90;;;;;;;6.43;100.00;100950.08;217796;1288;139690;-91
2023/04/19 11:54:32;;;;;;;14.40;7.20;;;;;;;6.36;100.00;100946.21;218439;1288;95908;-89
2023/04/19 11:59:34;;;;;;;15.60;7.70;;;;;;;6.35;100.00;100941.88;217954;1288;138972;-89
2023/04/19 12:04:35;;;;;;;21.50;11.30;;;;;;;6.35;100.00;100941.20;218611;1288;139283;-90
2023/04/19 12:09:37;;;;;;;16.40;8.10;;;;;;;6.42;100.00;100935.13;218098;1288;139069;-90
2023/04/19 12:14:38;;;;;;;15.20;7.30;;;;;;;6.60;100.00;100937.89;218520;1288;138846;-90
2023/04/19 12:19:47;;;;;;;15.20;7.80;;;;;;;6.73;100.00;100939.81;218066;1288;139419;-90
2023/04/19 12:24:50;;;;;;;15.30;7.60;;;;;;;6.80;100.00;100937.18;218654;1288;107641;-89
2023/04/19 12:29:50;;;;;;;13.20;7.20;;;;;;;6.86;100.00;100939.02;218131;1287;139017;-90
2023/04/19 12:34:51;;;;;;;17.90;9.70;;;;;;;6.89;100.00;100932.71;218610;1288;138739;-86
2023/04/19 12:39:51;;;;;;;15.10;9.80;;;;;;;6.95;100.00;100935.49;218077;1288;139259;-87
2023/04/19 12:44:51;;;;;;;14.90;8.20;;;;;;;6.98;100.00;100930.59;218580;1288;140210;-88
2023/04/19 12:49:54;;;;;;;30.90;24.70;;;;;;;7.02;100.00;100929.23;218012;1288;140433;-88
2023/04/19 12:54:55;;;;;;;18.40;12.80;;;;;;;7.08;100.00;100924.67;218698;1288;95979;-89
2023/04/19 12:59:58;;;;;;;22.10;14.50;;;;;;;7.12;100.00;100916.58;218072;1288;139104;-88
2023/04/19 13:04:59;;;;;;;23.10;10.60;;;;;;;7.21;100.00;100911.82;218566;1288;138843;-88
2023/04/19 13:09:59;;;;;;;27.90;15.20;;;;;;;7.31;100.00;100906.56;218019;1288;140567;-89
2023/04/19 13:15:00;;;;;;;15.70;8.30;;;;;;;7.40;100.00;100899.66;218446;1288;138948;-89
2023/04/19 13:20:00;;;;;;;23.70;11.30;;;;;;;7.50;100.00;100893.85;218106;1288;140118;-88
2023/04/19 13:25:01;;;;;;;16.60;9.00;;;;;;;7.59;100.00;100897.48;218649;1288;139061;-88
2023/04/19 13:30:01;;;;;;;16.60;9.40;;;;;;;7.66;100.00;100897.86;218110;1288;139088;-88
2023/04/19 13:35:02;;;;;;;13.90;7.40;;;;;;;7.72;100.00;100897.89;218381;1287;139795;-89
2023/04/19 13:40:04;;;;;;;15.00;8.00;;;;;;;7.77;100.00;100900.08;218080;1288;139577;-89
2023/04/19 13:45:05;;;;;;;14.10;7.30;;;;;;;7.78;100.00;100892.13;218504;1288;139537;-90
2023/04/19 13:50:06;;;;;;;13.00;7.20;;;;;;;7.82;100.00;100887.48;218056;1288;139890;-89
2023/04/19 13:55:06;;;;;;;16.00;7.20;;;;;;;7.85;100.00;100882.54;218465;1288;139342;-89
2023/04/19 14:00:07;;;;;;;14.50;8.10;;;;;;;7.85;100.00;100880.66;218044;1288;138967;-88
2023/04/19 14:05:08;;;;;;;12.70;7.40;;;;;;;7.84;100.00;100877.36;218585;1287;138613;-88
2023/04/19 14:10:09;;;;;;;19.40;8.60;;;;;;;7.78;100.00;100873.90;217939;1288;139251;-88
2023/04/19 14:15:10;;;;;;;20.10;10.50;;;;;;;7.76;100.00;100875.68;218637;1288;139730;-87
2023/04/19 14:20:11;;;;;;;17.60;9.80;;;;;;;7.68;100.00;100879.17;217927;1288;139318;-87
2023/04/19 14:25:13;;;;;;;17.00;10.30;;;;;;;7.73;100.00;100877.97;218485;1288;138799;-88
2023/04/19 14:30:14;;;;;;;17.40;9.80;;;;;;;7.75;100.00;100878.19;217968;1288;139193;-89
2023/04/19 14:35:14;;;;;;;15.30;8.70;;;;;;;7.72;100.00;100879.34;218349;1288;138618;-87
2023/04/19 14:40:16;;;;;;;18.10;9.40;;;;;;;7.74;100.00;100873.77;217909;1288;139146;-87
2023/04/19 14:45:17;;;;;;;27.70;14.80;;;;;;;7.81;100.00;100876.70;218359;1288;139030;-88
2023/04/19 14:50:17;;;;;;;19.40;11.20;;;;;;;7.80;100.00;100874.58;217931;1288;140393;-88
2023/04/19 14:55:18;;;;;;;17.80;9.50;;;;;;;7.82;100.00;100877.06;218459;1288;139474;-88
2023/04/19 15:00:18;;;;;;;17.50;10.20;;;;;;;7.83;100.00;100883.67;217790;1288;139276;-88
2023/04/19 15:05:22;;;;;;;30.10;13.80;;;;;;;7.88;100.00;100885.67;218415;1288;139704;-87
2023/04/19 15:10:22;;;;;;;16.70;10.20;;;;;;;7.94;100.00;100887.73;217947;1291;139040;-88
2023/04/19 15:15:22;;;;;;;18.90;11.40;;;;;;;7.92;100.00;100884.79;218495;1289;139581;-88
2023/04/19 15:20:23;;;;;;;23.70;13.80;;;;;;;7.90;100.00;100889.21;218001;1288;139106;-89
2023/04/19 15:25:24;;;;;;;19.40;11.20;;;;;;;7.85;100.00;100889.67;218227;1289;139184;-87
2023/04/19 15:30:25;;;;;;;19.40;9.10;;;;;;;7.77;100.00;100891.88;217922;1289;139893;-88
2023/04/19 15:35:26;;;;;;;21.20;11.80;;;;;;;7.80;100.00;100892.11;218228;1289;138901;-88
2023/04/19 15:40:28;;;;;;;20.00;11.20;;;;;;;7.78;100.00;100889.94;218000;1288;140414;-87
2023/04/19 15:45:28;;;;;;;22.50;12.30;;;;;;;7.75;100.00;100889.52;218427;1289;139497;-88
2023/04/19 15:50:28;;;;;;;17.20;10.50;;;;;;;7.75;100.00;100892.03;218013;1288;139641;-88
2023/04/19 15:55:30;;;;;;;19.10;11.60;;;;;;;7.75;100.00;100895.23;218377;1287;139609;-87
2023/04/19 16:00:31;;;;;;;19.00;11.90;;;;;;;7.74;100.00;100900.09;218175;1288;138900;-86
2023/04/19 16:05:31;;;;;;;20.80;12.20;;;;;;;7.72;100.00;100899.30;218511;1288;139236;-88
2023/04/19 16:10:32;;;;;;;35.70;16.00;;;;;;;7.71;100.00;100896.61;217859;1288;140975;-88
2023/04/19 16:15:32;;;;;;;40.30;16.50;;;;;;;7.64;100.00;100903.68;218177;1288;385816;-88
2023/04/19 16:20:33;;;;;;;40.50;15.60;;;;;;;7.58;100.00;100903.96;217959;1288;139854;-88
2023/04/19 16:25:33;;;;;;;27.60;13.20;;;;;;;7.56;100.00;100905.23;218455;1289;139137;-89
2023/04/19 16:30:34;;;;;;;30.90;12.80;;;;;;;7.50;100.00;100905.84;217895;1291;140386;-90
2023/04/19 16:35:34;;;;;;;20.10;10.10;;;;;;;7.45;100.00;100902.54;218392;1288;139127;-91
2023/04/19 16:40:35;;;;;;;35.30;13.20;;;;;;;7.41;100.00;100912.38;218072;1288;139851;-90
2023/04/19 16:45:35;;;;;;;19.50;12.20;;;;;;;7.41;100.00;100913.84;218510;1289;139042;-90
2023/04/19 16:50:36;;;;;;;18.70;11.10;;;;;;;7.42;100.00;100915.05;218042;1288;139376;-90
2023/04/19 16:55:37;;;;;;;21.00;12.20;;;;;;;7.44;100.00;100916.76;218620;1288;139348;-90
2023/04/19 17:00:37;;;;;;;22.70;12.70;;;;;;;7.41;100.00;100920.95;218083;1288;138919;-90
2023/04/19 17:05:37;;;;;;;18.60;12.40;;;;;;;7.39;100.00;100922.23;218477;1288;139061;-90
2023/04/19 17:10:38;;;;;;;25.80;14.60;;;;;;;7.42;100.00;100926.01;217967;1288;140089;-90
2023/04/19 17:15:38;;;;;;;30.80;14.50;;;;;;;7.39;100.00;100923.48;218402;1289;139555;-90
2023/04/19 17:20:39;;;;;;;29.60;15.50;;;;;;;7.38;100.00;100929.71;217932;1288;139341;-89
2023/04/19 17:25:39;;;;;;;24.50;13.30;;;;;;;7.33;100.00;100930.43;218326;1288;139107;-89
2023/04/19 17:30:40;;;;;;;23.40;12.00;;;;;;;7.33;100.00;100938.06;218092;1287;139115;-90
2023/04/19 17:35:40;;;;;;;27.30;12.10;;;;;;;7.29;100.00;100939.38;218588;1288;138786;-91
2023/04/19 17:40:41;;;;;;;22.90;11.60;;;;;;;7.27;100.00;100945.70;217675;1288;139657;-90
2023/04/19 17:45:41;;;;;;;18.20;12.30;;;;;;;7.25;100.00;100947.61;218436;1288;139177;-92
2023/04/19 17:50:42;;;;;;;22.10;13.40;;;;;;;7.21;100.00;100951.38;217998;1291;139851;-90
2023/04/19 17:55:42;;;;;;;21.90;12.90;;;;;;;7.18;100.00;100942.75;218564;1288;138986;-91
2023/04/19 18:00:43;;;;;;;22.90;13.60;;;;;;;7.18;100.00;100957.63;217901;1289;139175;-91
2023/04/19 18:05:43;;;;;;;21.20;12.50;;;;;;;7.18;100.00;100962.77;218392;1288;138922;-90
2023/04/19 18:10:44;;;;;;;28.90;14.80;;;;;;;7.13;100.00;100963.23;217694;1288;139283;-91
2023/04/19 18:15:44;;;;;;;23.80;11.70;;;;;;;7.08;100.00;100969.24;218614;1289;141397;-90
2023/04/19 18:20:44;;;;;;;22.00;11.70;;;;;;;7.02;100.00;100976.93;218012;1288;140174;-91
2023/04/19 18:25:54;;;;;;;23.00;11.60;;;;;;;7.00;100.00;100981.39;218300;1289;138987;-90
2023/04/19 18:30:55;;;;;;;20.90;10.30;;;;;;;6.99;100.00;100986.60;217871;1288;139530;-92
2023/04/19 18:35:56;;;;;;;27.60;14.70;;;;;;;6.97;100.00;100988.73;218653;1289;96077;-91
2023/04/19 18:40:57;;;;;;;47.30;16.70;;;;;;;6.95;100.00;100994.92;218087;1288;140193;-91
2023/04/19 18:45:59;;;;;;;165.20;60.00;;;;;;;6.91;100.00;100999.45;218493;1289;139701;-91
2023/04/19 18:50:59;;;;;;;189.10;70.30;;;;;;;6.91;100.00;100999.67;217934;1288;140141;-92
2023/04/19 18:56:00;;;;;;;117.80;44.70;;;;;;;6.90;100.00;101005.61;218463;1291;139447;-91
2023/04/19 19:01:00;;;;;;;56.70;19.70;;;;;;;6.89;100.00;101004.17;217860;1288;162075;-92
2023/04/19 19:06:01;;;;;;;37.30;17.20;;;;;;;6.88;100.00;101011.48;218571;1289;96047;-91
2023/04/19 19:11:02;;;;;;;48.60;17.70;;;;;;;6.85;100.00;101013.25;217878;1288;139698;-92
2023/04/19 19:16:04;;;;;;;24.50;9.90;;;;;;;6.85;100.00;101016.45;218509;1289;139267;-91
2023/04/19 19:21:06;;;;;;;15.40;8.40;;;;;;;6.82;100.00;101012.11;218143;1288;139418;-93
2023/04/19 19:26:06;;;;;;;18.20;9.60;;;;;;;6.79;100.00;101010.62;218662;1287;139040;-92
2023/04/19 19:31:07;;;;;;;19.90;10.50;;;;;;;6.79;100.00;101019.27;218064;1289;139619;-92
2023/04/19 19:36:08;;;;;;;18.80;11.60;;;;;;;6.77;100.00;101022.35;218759;1289;96128;-91
2023/04/19 19:41:09;;;;;;;22.50;12.30;;;;;;;6.78;100.00;101026.42;217857;1289;139448;-92
2023/04/19 19:46:10;;;;;;;22.00;13.60;;;;;;;6.78;100.00;101033.02;218372;1288;139560;-92
2023/04/19 19:51:11;;;;;;;22.80;13.80;;;;;;;6.79;100.00;101034.46;217944;1289;139454;-91
2023/04/19 22:21:38;;;;;;;24.20;15.10;;;;;;;7.34;100.00;101038.25;218046;1290;139694;-84
2023/04/19 22:26:38;;;;;;;21.60;14.40;;;;;;;7.34;100.00;101035.04;218540;1291;139485;-84
2023/04/19 22:31:39;;;;;;;24.60;15.40;;;;;;;7.36;100.00;101031.25;218078;1290;140165;-83
2023/04/19 22:36:40;;;;;;;26.60;15.40;;;;;;;7.37;100.00;101026.29;218682;1290;138987;-84
2023/04/19 22:41:40;;;;;;;22.40;14.80;;;;;;;7.38;100.00;101023.27;217969;1290;139332;-84
2023/04/19 22:46:40;;;;;;;29.40;16.80;;;;;;;7.37;100.00;101019.33;218602;1290;139068;-85
2023/04/19 22:51:43;;;;;;;27.90;16.50;;;;;;;7.38;100.00;101016.70;218064;1290;140973;-84
2023/04/19 22:56:43;;;;;;;28.90;16.80;;;;;;;7.39;100.00;101011.27;218596;1290;139099;-84
2023/04/19 23:01:44;;;;;;;29.50;18.40;;;;;;;7.41;100.00;101014.22;218063;1290;139998;-84
2023/04/19 23:06:47;;;;;;;28.30;19.20;;;;;;;7.41;100.00;101012.44;218566;1291;139226;-82
2023/04/19 23:11:47;;;;;;;32.70;21.00;;;;;;;7.40;100.00;101012.88;218102;1291;139471;-83
2023/04/19 23:16:48;;;;;;;31.30;20.10;;;;;;;7.40;100.00;101011.91;218626;1291;139227;-84
2023/04/19 23:21:49;;;;;;;30.10;19.70;;;;;;;7.41;100.00;101005.55;217930;1291;139563;-83
2023/04/19 23:26:49;;;;;;;38.60;22.10;;;;;;;7.41;100.00;100999.70;218548;1290;140642;-84
2023/04/19 23:31:49;;;;;;;36.70;21.90;;;;;;;7.40;100.00;101006.59;218234;1291;139571;-84
2023/04/19 23:36:49;;;;;;;36.30;22.80;;;;;;;7.39;100.00;101006.67;218847;1291;139147;-84
2023/04/19 23:41:50;;;;;;;41.00;26.10;;;;;;;7.40;100.00;101005.11;218399;1290;140730;-83
2023/04/19 23:46:50;;;;;;;38.40;24.00;;;;;;;7.42;100.00;101001.52;218637;1290;139441;-83
2023/04/19 23:51:51;;;;;;;38.60;23.90;;;;;;;7.43;100.00;101001.52;218087;1292;140069;-84
2023/04/19 23:56:51;;;;;;;38.30;24.40;;;;;;;7.43;100.00;100998.83;218671;1292;139234;-84
